Time;durP1;ratioP1;P1;durP2;ratioP2;P2;SDS_P1;SDS_P2;PMS_P1;PMS_P2;Temp;Humidity;BMP_temperature;BMP_pressure;BME280_temperature;BME280_humidity;BME280_pressure;Samples;Min_cycle;Max_cycle;Signal;HPM_P1;HPM_P2
2022/11/02 00:00:28;;;;;;;10.57;2.08;;;12.90;99.90;;;;;;4979130;28;20092;-60
2022/11/02 00:02:54;;;;;;;18.00;1.60;;;12.90;99.90;;;;;;4977079;28;20501;-60
2022/11/02 00:05:23;;;;;;;13.80;1.63;;;12.90;99.90;;;;;;4978275;28;20034;-60
2022/11/02 00:07:49;;;;;;;15.88;1.67;;;12.90;99.90;;;;;;4962091;28;20022;-62
2022/11/02 00:10:15;;;;;;;17.85;1.83;;;12.80;99.90;;;;;;4969554;28;20034;-61
2022/11/02 00:12:41;;;;;;;11.25;1.75;;;12.80;99.90;;;;;;4973646;28;20092;-61
2022/11/02 00:15:07;;;;;;;21.08;2.33;;;12.90;99.90;;;;;;4961407;28;20081;-61
2022/11/02 00:17:34;;;;;;;14.93;2.45;;;13.00;99.90;;;;;;4971616;28;20443;-61
2022/11/02 00:20:01;;;;;;;15.68;1.90;;;13.00;99.90;;;;;;4967607;28;20026;-61
2022/11/02 00:22:26;;;;;;;17.10;2.35;;;13.10;99.90;;;;;;4967282;28;20114;-60
2022/11/02 00:24:52;;;;;;;19.70;2.30;;;13.20;99.90;;;;;;4969560;28;20189;-61
2022/11/02 00:27:18;;;;;;;17.50;3.08;;;13.30;99.90;;;;;;4972353;28;20030;-60
2022/11/02 00:29:43;;;;;;;14.70;2.47;;;13.30;99.90;;;;;;4975920;28;20030;-60
2022/11/02 00:32:09;;;;;;;14.68;3.30;;;13.30;99.90;;;;;;4970176;28;20093;-62
2022/11/02 00:34:34;;;;;;;16.02;1.92;;;13.30;99.90;;;;;;4970319;28;20031;-61
2022/11/02 00:37:00;;;;;;;17.08;2.28;;;13.30;99.90;;;;;;4968123;28;20031;-61
2022/11/02 00:39:25;;;;;;;16.20;2.20;;;13.20;99.90;;;;;;4970255;28;20043;-61
2022/11/02 00:41:51;;;;;;;14.68;1.90;;;13.30;99.90;;;;;;4971019;28;20129;-59
2022/11/02 00:44:17;;;;;;;19.02;2.75;;;13.20;99.90;;;;;;4968102;28;20026;-61
2022/11/02 00:46:42;;;;;;;17.00;1.52;;;13.20;99.90;;;;;;4972309;28;20140;-63
2022/11/02 00:49:08;;;;;;;20.65;1.63;;;13.20;99.90;;;;;;4972987;28;20145;-59
2022/11/02 00:51:33;;;;;;;9.77;2.00;;;13.20;99.90;;;;;;4951386;28;20030;-58
2022/11/02 00:53:59;;;;;;;11.52;2.17;;;13.20;99.90;;;;;;4967867;28;20047;-59
2022/11/02 00:56:24;;;;;;;12.73;1.92;;;13.20;99.90;;;;;;4972165;28;20045;-54
2022/11/02 00:58:50;;;;;;;14.82;2.17;;;13.10;99.90;;;;;;4969513;28;20045;-59
2022/11/02 01:01:15;;;;;;;16.52;2.45;;;13.20;99.90;;;;;;4957536;28;20103;-60
2022/11/02 01:03:41;;;;;;;15.60;2.22;;;13.20;99.90;;;;;;4974595;28;20029;-59
2022/11/02 01:06:12;;;;;;;11.70;2.08;;;13.20;99.90;;;;;;4971759;28;20023;-60
2022/11/02 01:08:38;;;;;;;16.38;2.72;;;13.20;99.90;;;;;;4971678;28;20389;-59
2022/11/02 01:11:18;;;;;;;19.48;2.95;;;13.20;99.90;;;;;;4976922;28;20027;-56
2022/11/02 01:13:44;;;;;;;22.67;2.50;;;13.20;99.90;;;;;;4972551;28;20035;-59
2022/11/02 01:16:11;;;;;;;17.42;3.28;;;13.20;99.90;;;;;;4971658;28;20094;-61
2022/11/02 01:18:37;;;;;;;17.67;2.45;;;13.20;99.90;;;;;;4978448;28;20455;-58
2022/11/02 01:21:03;;;;;;;14.88;2.47;;;13.20;99.90;;;;;;4974124;28;20041;-58
2022/11/02 01:23:33;;;;;;;20.48;2.95;;;13.20;99.90;;;;;;4965820;28;20027;-59
2022/11/02 01:26:02;;;;;;;13.75;2.28;;;13.20;99.90;;;;;;4972972;28;20027;-61
2022/11/02 01:28:28;;;;;;;12.13;2.17;;;13.20;99.90;;;;;;4976546;28;20027;-59
2022/11/02 01:30:53;;;;;;;13.15;2.63;;;13.30;99.90;;;;;;4978212;28;20035;-60
2022/11/02 01:33:19;;;;;;;13.60;3.00;;;13.20;99.90;;;;;;4984494;28;20030;-60
2022/11/02 01:35:44;;;;;;;12.13;1.80;;;13.20;99.90;;;;;;4975339;28;20098;-58
2022/11/02 01:38:10;;;;;;;17.67;2.65;;;13.20;99.90;;;;;;4972143;28;20035;-59
2022/11/02 01:40:37;;;;;;;16.30;2.28;;;13.10;99.90;;;;;;4977957;28;20139;-59
2022/11/02 01:43:24;;;;;;;19.48;2.97;;;13.10;99.90;;;;;;4974369;28;20113;-59
2022/11/02 01:46:17;;;;;;;20.17;2.42;;;13.10;99.90;;;;;;4969923;28;20026;-59
2022/11/02 01:48:51;;;;;;;15.35;2.67;;;13.00;99.90;;;;;;4966129;28;20166;-59
2022/11/02 01:51:34;;;;;;;12.90;2.40;;;12.90;99.90;;;;;;4972742;28;20030;-60
2022/11/02 01:54:07;;;;;;;19.05;2.75;;;12.90;99.90;;;;;;4971333;28;20062;-59
2022/11/02 01:56:33;;;;;;;19.05;2.10;;;12.90;99.90;;;;;;4978095;28;20038;-61
2022/11/02 01:59:09;;;;;;;7.88;2.28;;;12.90;99.90;;;;;;4978108;28;20030;-60
2022/11/02 02:01:35;;;;;;;18.48;2.03;;;12.80;99.90;;;;;;4969848;28;20046;-59
2022/11/02 02:04:01;;;;;;;14.77;2.30;;;12.70;99.90;;;;;;4969693;28;20092;-58
2022/11/02 02:06:27;;;;;;;17.77;2.42;;;12.70;99.90;;;;;;4971117;28;20117;-59
2022/11/02 02:08:56;;;;;;;11.35;2.60;;;12.60;99.90;;;;;;4970755;28;20186;-59
2022/11/02 02:11:36;;;;;;;17.42;3.28;;;12.60;99.90;;;;;;4975062;28;20037;-57
2022/11/02 02:14:10;;;;;;;12.88;2.00;;;12.60;99.90;;;;;;4971918;28;20553;-59
2022/11/02 02:16:51;;;;;;;15.32;2.83;;;12.50;99.90;;;;;;4970862;28;20060;-59
2022/11/02 02:19:41;;;;;;;21.75;3.17;;;12.60;99.90;;;;;;4976727;28;20035;-59
2022/11/02 02:22:19;;;;;;;17.77;2.72;;;12.60;99.90;;;;;;4978339;28;20031;-58
2022/11/02 02:24:57;;;;;;;26.20;2.85;;;12.50;99.90;;;;;;4968674;28;20026;-58
2022/11/02 02:27:44;;;;;;;20.60;2.38;;;12.50;99.90;;;;;;4974284;28;20029;-58
2022/11/02 02:30:11;;;;;;;15.48;2.70;;;12.50;99.90;;;;;;4970323;28;20046;-58
2022/11/02 02:32:43;;;;;;;10.18;2.10;;;12.50;99.90;;;;;;4971227;28;20026;-59
2022/11/02 02:35:16;;;;;;;12.82;2.45;;;12.40;99.90;;;;;;4982446;28;20392;-60
2022/11/02 02:38:04;;;;;;;15.35;2.47;;;12.40;99.90;;;;;;4972606;28;20023;-61
2022/11/02 02:40:35;;;;;;;11.10;1.60;;;12.30;99.90;;;;;;4975588;28;20126;-61
2022/11/02 02:43:13;;;;;;;26.38;2.13;;;12.30;99.90;;;;;;4970643;28;20031;-61
2022/11/02 02:45:59;;;;;;;16.73;2.13;;;12.30;99.90;;;;;;4971565;28;20023;-61
2022/11/02 02:48:25;;;;;;;10.27;1.65;;;12.30;99.90;;;;;;4973957;28;20097;-61
2022/11/02 02:50:51;;;;;;;18.33;2.10;;;12.30;99.90;;;;;;4973618;28;20109;-57
2022/11/02 02:53:32;;;;;;;16.58;1.70;;;12.40;99.90;;;;;;4972126;28;20035;-57
2022/11/02 02:56:01;;;;;;;9.48;1.80;;;12.30;99.90;;;;;;4973679;28;20757;-60
2022/11/02 02:58:34;;;;;;;12.00;1.80;;;12.20;99.90;;;;;;4968759;28;20480;-60
2022/11/02 03:01:00;;;;;;;10.47;1.60;;;12.20;99.90;;;;;;4974326;28;20113;-64
2022/11/02 03:03:28;;;;;;;15.93;2.75;;;12.20;99.90;;;;;;4974566;28;20101;-56
2022/11/02 03:06:11;;;;;;;19.13;2.00;;;12.20;99.90;;;;;;4976230;28;20101;-58
2022/11/02 03:08:40;;;;;;;15.95;2.33;;;12.20;99.90;;;;;;4978788;28;20041;-59
2022/11/02 03:11:15;;;;;;;17.05;2.30;;;12.20;99.90;;;;;;4970393;28;20069;-58
2022/11/02 03:14:23;;;;;;;12.93;1.70;;;12.20;99.90;;;;;;4971367;28;20195;-58
2022/11/02 03:16:54;;;;;;;8.93;2.20;;;12.20;99.90;;;;;;4964123;28;20520;-59
2022/11/02 03:19:28;;;;;;;11.07;2.13;;;12.30;99.90;;;;;;4965418;28;20113;-59
2022/11/02 03:22:17;;;;;;;17.85;2.22;;;12.40;99.90;;;;;;4970833;28;20091;-60
2022/11/02 03:24:54;;;;;;;17.60;2.15;;;12.50;99.90;;;;;;4971042;28;20113;-60
2022/11/02 03:27:41;;;;;;;11.02;2.33;;;12.50;99.90;;;;;;4968329;28;20022;-60
2022/11/02 03:30:14;;;;;;;9.35;2.17;;;12.50;99.90;;;;;;4968155;28;20022;-61
2022/11/02 03:33:07;;;;;;;9.35;2.15;;;12.50;99.90;;;;;;4967436;28;20489;-60
2022/11/02 03:36:02;;;;;;;19.95;2.38;;;12.50;99.90;;;;;;4966325;28;20030;-60
2022/11/02 03:38:40;;;;;;;14.82;1.77;;;12.50;99.90;;;;;;4969882;28;20023;-61
2022/11/02 03:41:07;;;;;;;14.90;2.13;;;12.50;99.90;;;;;;4976170;28;20038;-59
2022/11/02 03:43:35;;;;;;;10.55;2.10;;;12.50;99.90;;;;;;4970328;28;20023;-60
2022/11/02 03:46:04;;;;;;;10.85;2.03;;;12.50;99.90;;;;;;4968408;28;20034;-59
2022/11/02 03:48:35;;;;;;;12.02;2.53;;;12.50;99.90;;;;;;4969616;28;20034;-60
2022/11/02 03:51:04;;;;;;;15.18;2.33;;;12.40;99.90;;;;;;4966616;28;20501;-62
2022/11/02 03:53:33;;;;;;;16.63;2.90;;;12.40;99.90;;;;;;4974832;28;20042;-61
2022/11/02 03:56:07;;;;;;;16.13;3.03;;;12.40;99.90;;;;;;4969319;28;20041;-59
2022/11/02 03:58:34;;;;;;;17.13;3.05;;;12.40;99.90;;;;;;4970928;28;20030;-61
2022/11/02 04:01:03;;;;;;;23.55;4.00;;;12.40;99.90;;;;;;4970079;28;20493;-61
2022/11/02 04:03:31;;;;;;;10.90;2.38;;;12.40;99.90;;;;;;4969028;28;20153;-61
2022/11/02 04:05:57;;;;;;;9.00;2.08;;;12.40;99.90;;;;;;4971048;28;20089;-60
2022/11/02 04:08:31;;;;;;;10.73;2.08;;;12.40;99.90;;;;;;4968092;28;21210;-60
2022/11/02 04:16:25;;;;;;;13.10;2.00;;;12.40;99.90;;;;;;4968145;28;20041;-59
2022/11/02 04:21:35;;;;;;;7.00;1.45;;;12.30;99.90;;;;;;4970110;28;20089;-59
2022/11/02 04:26:44;;;;;;;17.90;2.38;;;12.30;99.90;;;;;;4967446;28;20038;-58
2022/11/02 04:29:10;;;;;;;21.73;2.05;;;12.30;99.90;;;;;;4970309;28;20458;-57
2022/11/02 04:31:36;;;;;;;7.28;1.85;;;12.30;99.90;;;;;;4966145;28;20093;-58
2022/11/02 04:34:01;;;;;;;10.77;1.73;;;12.30;99.90;;;;;;4972897;28;20038;-60
2022/11/02 04:36:30;;;;;;;11.57;1.70;;;12.20;99.90;;;;;;4971098;28;20030;-57
2022/11/02 04:38:56;;;;;;;6.97;1.45;;;12.50;99.90;;;;;;4971294;28;20034;-60
2022/11/02 04:41:41;;;;;;;20.40;2.75;;;12.70;99.90;;;;;;4974227;28;21622;-56
2022/11/02 04:44:09;;;;;;;14.75;2.03;;;13.00;99.90;;;;;;4967691;28;20098;-60
2022/11/02 04:46:36;;;;;;;10.27;1.38;;;13.10;99.90;;;;;;4972878;28;20089;-56
2022/11/02 04:49:02;;;;;;;9.48;1.52;;;13.10;99.90;;;;;;4971820;28;20509;-57
2022/11/02 04:51:28;;;;;;;7.30;1.45;;;13.00;99.90;;;;;;4968956;28;20038;-57
2022/11/02 04:53:56;;;;;;;6.10;1.23;;;12.90;99.90;;;;;;4963174;28;20027;-58
2022/11/02 04:56:22;;;;;;;10.10;1.65;;;13.00;99.90;;;;;;4970382;28;20453;-60
2022/11/02 04:58:54;;;;;;;17.27;1.73;;;13.10;99.90;;;;;;4968003;28;20034;-61
2022/11/02 05:01:20;;;;;;;15.60;1.27;;;13.10;99.90;;;;;;4967329;28;20093;-57
2022/11/02 05:03:47;;;;;;;11.45;1.70;;;13.10;99.90;;;;;;4970677;28;20031;-59
2022/11/02 05:06:14;;;;;;;20.48;2.20;;;13.10;99.90;;;;;;4966908;28;20031;-59
2022/11/02 05:08:39;;;;;;;11.98;3.13;;;13.00;99.90;;;;;;4968472;28;20035;-59
2022/11/02 05:11:05;;;;;;;8.60;1.33;;;13.20;99.90;;;;;;4968540;28;20034;-60
2022/11/02 05:13:31;;;;;;;10.38;1.48;;;13.10;99.90;;;;;;4970403;28;20039;-58
2022/11/02 05:15:58;;;;;;;8.90;1.63;;;13.10;99.90;;;;;;4968974;28;20049;-59
2022/11/02 05:18:25;;;;;;;12.10;1.80;;;13.10;99.90;;;;;;4970367;28;20094;-58
2022/11/02 05:20:53;;;;;;;12.73;1.58;;;13.10;99.90;;;;;;4968673;28;20069;-57
2022/11/02 05:23:20;;;;;;;6.90;1.20;;;13.10;99.90;;;;;;4969404;28;20029;-58
2022/11/02 05:26:06;;;;;;;13.68;2.13;;;13.00;99.90;;;;;;4971445;28;20428;-58
2022/11/02 05:28:32;;;;;;;7.22;1.38;;;13.10;99.90;;;;;;4967831;28;20480;-57
2022/11/02 05:30:59;;;;;;;7.05;1.30;;;13.00;99.90;;;;;;4969426;28;20035;-58
2022/11/02 05:33:26;;;;;;;12.82;1.90;;;12.90;99.90;;;;;;4971756;28;20078;-59
2022/11/02 05:35:54;;;;;;;13.60;1.30;;;12.80;99.90;;;;;;4968190;28;20098;-59
2022/11/02 05:38:20;;;;;;;11.40;2.15;;;12.80;99.90;;;;;;4968772;28;20433;-61
2022/11/02 05:40:54;;;;;;;6.80;1.52;;;12.80;99.90;;;;;;4968192;28;20039;-59
2022/11/02 05:43:20;;;;;;;11.27;1.52;;;12.90;99.90;;;;;;4974606;28;20026;-58
2022/11/02 05:45:58;;;;;;;13.35;1.80;;;12.80;99.90;;;;;;4968708;28;20408;-57
2022/11/02 05:48:24;;;;;;;20.73;2.38;;;12.90;99.90;;;;;;4970011;28;21984;-62
2022/11/02 05:50:58;;;;;;;10.75;1.50;;;12.80;99.90;;;;;;4965308;28;20041;-58
2022/11/02 05:53:25;;;;;;;11.63;1.27;;;12.80;99.90;;;;;;4969758;28;20507;-57
2022/11/02 05:55:51;;;;;;;13.48;1.92;;;12.90;99.90;;;;;;4969464;28;20049;-57
2022/11/02 05:58:17;;;;;;;8.80;1.15;;;12.90;99.90;;;;;;4974509;28;20046;-57
2022/11/02 06:00:42;;;;;;;14.55;2.20;;;12.70;99.90;;;;;;4967029;28;20170;-59
2022/11/02 06:03:08;;;;;;;20.10;2.55;;;12.80;99.90;;;;;;4973994;28;20049;-59
2022/11/02 06:05:33;;;;;;;13.25;1.40;;;12.90;99.90;;;;;;4969557;28;20031;-56
2022/11/02 06:08:00;;;;;;;14.07;2.00;;;12.80;99.90;;;;;;4968153;28;20030;-57
2022/11/02 06:10:29;;;;;;;17.27;2.58;;;12.80;99.90;;;;;;4971909;28;20117;-58
2022/11/02 06:13:00;;;;;;;19.45;2.05;;;12.80;99.90;;;;;;4976141;28;20481;-59
2022/11/02 06:15:27;;;;;;;11.80;1.55;;;12.80;99.90;;;;;;4969101;28;20140;-58
2022/11/02 06:17:52;;;;;;;8.55;1.95;;;12.90;99.90;;;;;;4970957;28;20095;-60
2022/11/02 06:20:18;;;;;;;16.52;2.28;;;13.00;99.90;;;;;;4971523;28;20035;-58
2022/11/02 06:22:44;;;;;;;23.52;2.20;;;12.90;99.90;;;;;;4969945;28;20118;-57
2022/11/02 06:25:11;;;;;;;10.48;1.63;;;12.90;99.90;;;;;;4972730;28;20023;-57
2022/11/02 06:27:36;;;;;;;14.88;2.20;;;12.90;99.90;;;;;;4972922;28;20035;-58
2022/11/02 06:30:03;;;;;;;8.57;1.50;;;13.00;99.90;;;;;;4972269;28;20035;-60
2022/11/02 06:32:28;;;;;;;25.88;2.38;;;13.00;99.90;;;;;;4971080;28;20081;-58
2022/11/02 06:34:54;;;;;;;8.70;2.47;;;12.90;99.90;;;;;;4968020;28;20508;-59
2022/11/02 06:37:21;;;;;;;11.93;2.33;;;12.90;99.90;;;;;;4971854;28;20093;-59
2022/11/02 06:39:46;;;;;;;14.80;2.00;;;12.90;99.90;;;;;;4975387;28;20031;-57
2022/11/02 06:42:12;;;;;;;15.25;1.80;;;12.90;99.90;;;;;;4972513;28;20039;-58
2022/11/02 06:44:38;;;;;;;18.23;2.00;;;13.00;99.90;;;;;;4972031;28;20027;-54
2022/11/02 06:47:04;;;;;;;12.93;1.20;;;12.90;99.90;;;;;;4972499;28;20109;-58
2022/11/02 06:49:30;;;;;;;13.73;1.60;;;12.90;99.90;;;;;;4969150;28;20485;-56
2022/11/02 06:51:55;;;;;;;10.85;1.30;;;12.90;99.90;;;;;;4970820;28;20069;-56
2022/11/02 06:54:21;;;;;;;10.27;1.25;;;12.90;99.90;;;;;;4970623;28;20022;-58
2022/11/02 06:56:46;;;;;;;7.93;1.35;;;12.90;99.90;;;;;;4969493;28;20057;-56
2022/11/02 06:59:12;;;;;;;16.63;2.15;;;12.80;99.90;;;;;;4969432;28;20412;-56
2022/11/02 07:01:37;;;;;;;15.43;1.40;;;12.90;99.90;;;;;;4970028;28;20030;-55
2022/11/02 07:04:03;;;;;;;19.00;2.20;;;12.90;99.90;;;;;;4973093;28;20061;-58
2022/11/02 07:06:28;;;;;;;26.73;2.20;;;12.90;99.90;;;;;;4971644;28;20034;-57
2022/11/02 07:08:54;;;;;;;13.90;1.83;;;12.90;99.90;;;;;;4968434;28;20456;-57
2022/11/02 07:11:20;;;;;;;21.75;2.60;;;13.00;99.90;;;;;;4976708;28;20516;-58
2022/11/02 07:13:46;;;;;;;13.70;2.20;;;13.00;99.90;;;;;;4971738;28;20031;-58
2022/11/02 07:16:12;;;;;;;20.77;2.72;;;12.90;99.90;;;;;;4967884;28;20038;-56
2022/11/02 07:18:37;;;;;;;15.00;1.58;;;12.90;99.90;;;;;;4967649;28;20105;-58
2022/11/02 07:21:03;;;;;;;13.60;1.33;;;12.90;99.90;;;;;;4972462;28;20444;-57
2022/11/02 07:23:29;;;;;;;7.35;1.48;;;12.90;99.90;;;;;;4972734;28;20033;-57
2022/11/02 07:25:54;;;;;;;16.17;2.10;;;12.90;99.90;;;;;;4972405;28;20543;-58
2022/11/02 07:28:20;;;;;;;12.93;1.45;;;12.90;99.90;;;;;;4971196;28;20412;-54
2022/11/02 07:30:46;;;;;;;24.20;1.92;;;12.80;99.90;;;;;;4969133;28;20030;-58
2022/11/02 07:33:11;;;;;;;17.52;1.67;;;12.80;99.90;;;;;;4972661;28;20030;-58
2022/11/02 07:35:37;;;;;;;14.15;1.85;;;12.80;99.90;;;;;;4980010;28;20034;-58
2022/11/02 07:38:05;;;;;;;10.85;1.52;;;12.80;99.90;;;;;;4971678;28;20113;-58
2022/11/02 07:40:33;;;;;;;9.82;1.38;;;12.80;99.90;;;;;;4973091;28;20088;-59
2022/11/02 07:42:59;;;;;;;9.43;1.52;;;12.90;99.90;;;;;;4965525;28;20050;-58
2022/11/02 07:45:25;;;;;;;10.13;1.30;;;12.90;99.90;;;;;;4962279;28;20409;-57
2022/11/02 07:47:51;;;;;;;13.98;1.98;;;12.90;99.90;;;;;;4969373;28;20023;-59
2022/11/02 07:50:19;;;;;;;12.65;1.63;;;12.90;99.90;;;;;;4972075;28;20023;-59
2022/11/02 07:52:52;;;;;;;7.68;1.88;;;12.90;99.90;;;;;;4968801;28;20801;-57
2022/11/02 07:55:20;;;;;;;13.17;1.40;;;12.90;99.90;;;;;;4972046;28;20026;-59
2022/11/02 07:58:00;;;;;;;13.48;1.40;;;12.90;99.90;;;;;;4971178;28;20046;-57
2022/11/02 08:00:27;;;;;;;15.20;1.88;;;13.00;99.90;;;;;;4970319;28;20073;-59
2022/11/02 08:02:54;;;;;;;19.35;1.83;;;13.00;99.90;;;;;;4974836;28;20104;-56
2022/11/02 08:05:20;;;;;;;16.13;1.83;;;13.00;99.90;;;;;;4967308;28;20023;-58
2022/11/02 08:07:45;;;;;;;15.13;2.47;;;13.20;99.90;;;;;;4968706;28;20109;-59
2022/11/02 08:10:11;;;;;;;7.95;1.42;;;13.40;99.90;;;;;;4968476;28;20023;-56
2022/11/02 08:12:36;;;;;;;19.75;1.95;;;13.40;99.90;;;;;;4970602;28;20405;-59
2022/11/02 08:15:02;;;;;;;9.93;1.80;;;13.40;99.90;;;;;;4969535;28;20508;-57
2022/11/02 08:17:28;;;;;;;14.23;1.40;;;13.40;99.90;;;;;;4968122;28;20033;-56
2022/11/02 08:19:53;;;;;;;13.15;2.08;;;13.40;99.90;;;;;;4974769;28;20065;-57
2022/11/02 08:22:19;;;;;;;10.43;1.35;;;13.40;99.90;;;;;;4970314;28;20050;-57
2022/11/02 08:24:44;;;;;;;16.83;1.85;;;13.40;99.90;;;;;;4974612;28;20022;-58
2022/11/02 08:27:10;;;;;;;9.15;1.25;;;13.40;99.90;;;;;;4974052;28;20039;-59
2022/11/02 08:29:35;;;;;;;15.93;1.67;;;13.40;99.90;;;;;;4974880;28;20037;-58
2022/11/02 08:32:01;;;;;;;7.97;2.13;;;13.50;99.90;;;;;;4971484;28;20034;-57
2022/11/02 08:34:27;;;;;;;11.95;1.67;;;13.50;99.90;;;;;;4975596;28;20054;-58
2022/11/02 08:36:53;;;;;;;12.05;1.70;;;13.50;99.90;;;;;;4970241;28;20038;-55
2022/11/02 08:39:18;;;;;;;15.95;3.25;;;13.50;99.90;;;;;;4972733;28;20109;-58
2022/11/02 08:41:44;;;;;;;19.48;2.30;;;13.60;99.90;;;;;;4972768;28;20039;-58
2022/11/02 08:44:09;;;;;;;12.55;1.92;;;13.60;99.90;;;;;;4970293;28;20164;-57
2022/11/02 08:46:35;;;;;;;14.38;1.77;;;13.60;99.90;;;;;;4970864;28;20035;-57
2022/11/02 08:49:00;;;;;;;5.53;1.10;;;13.70;99.90;;;;;;4976386;28;20035;-59
2022/11/02 08:51:26;;;;;;;15.30;1.45;;;13.80;99.90;;;;;;4970992;28;20046;-58
2022/11/02 08:53:51;;;;;;;12.63;1.63;;;13.80;99.90;;;;;;4969751;28;20485;-58
2022/11/02 08:56:17;;;;;;;10.98;1.50;;;13.80;99.90;;;;;;4977435;28;20500;-58
2022/11/02 08:58:42;;;;;;;12.63;1.80;;;13.80;99.90;;;;;;4979657;28;20062;-59
2022/11/02 09:01:08;;;;;;;13.98;1.50;;;13.80;99.90;;;;;;4980687;28;20396;-56
2022/11/02 09:03:33;;;;;;;13.07;2.53;;;13.80;99.90;;;;;;4975318;28;20034;-59
2022/11/02 09:06:01;;;;;;;23.98;2.13;;;13.80;99.90;;;;;;4977997;28;20038;-58
2022/11/02 09:08:27;;;;;;;14.77;1.63;;;13.80;99.90;;;;;;4970796;28;20022;-57
2022/11/02 09:10:58;;;;;;;16.48;2.80;;;13.80;99.90;;;;;;4972001;28;20038;-58
2022/11/02 09:13:24;;;;;;;13.35;2.15;;;13.80;99.90;;;;;;4973898;28;20697;-56
2022/11/02 09:15:54;;;;;;;14.05;1.98;;;13.80;99.90;;;;;;4973682;28;20035;-58
2022/11/02 09:18:20;;;;;;;14.95;1.48;;;13.90;99.90;;;;;;4977359;28;20034;-57
2022/11/02 09:20:47;;;;;;;14.50;1.50;;;13.90;99.90;;;;;;4981827;28;20101;-58
2022/11/02 09:23:17;;;;;;;9.90;2.15;;;14.00;99.90;;;;;;4969759;28;20019;-59
2022/11/02 09:25:43;;;;;;;11.05;1.98;;;14.00;99.90;;;;;;4974086;28;20026;-58
2022/11/02 09:28:08;;;;;;;20.20;1.40;;;14.10;99.90;;;;;;4963812;28;20027;-58
2022/11/02 09:30:34;;;;;;;11.70;1.92;;;14.10;99.90;;;;;;4965765;28;20398;-58
2022/11/02 09:33:02;;;;;;;14.40;1.63;;;14.20;99.90;;;;;;4965685;28;20405;-59
2022/11/02 09:35:30;;;;;;;11.38;1.50;;;14.20;99.90;;;;;;4960467;28;20493;-55
2022/11/02 09:37:56;;;;;;;13.65;1.83;;;14.20;99.90;;;;;;4970415;28;20022;-58
2022/11/02 09:40:28;;;;;;;12.52;2.35;;;14.20;99.90;;;;;;4960579;28;20023;-57
2022/11/02 09:43:24;;;;;;;13.52;1.52;;;14.30;99.90;;;;;;4958494;28;20106;-57
2022/11/02 09:45:55;;;;;;;13.15;1.60;;;14.40;99.90;;;;;;4958853;28;20019;-56
2022/11/02 09:48:44;;;;;;;26.98;2.65;;;14.40;99.90;;;;;;4965166;28;20027;-57
2022/11/02 09:51:18;;;;;;;17.98;1.60;;;14.40;99.90;;;;;;4964455;28;20133;-56
2022/11/02 09:54:02;;;;;;;12.93;1.15;;;14.40;99.90;;;;;;4958915;28;20126;-58
2022/11/02 09:56:30;;;;;;;16.40;2.25;;;14.40;99.90;;;;;;4958948;28;20031;-63
2022/11/02 09:59:02;;;;;;;10.38;1.02;;;14.60;99.90;;;;;;4968330;28;20494;-61
2022/11/02 10:01:41;;;;;;;10.25;1.60;;;14.70;99.90;;;;;;4956524;28;20031;-61
2022/11/02 10:04:27;;;;;;;13.65;1.52;;;14.70;99.90;;;;;;4970192;28;20497;-61
2022/11/02 10:07:12;;;;;;;8.95;1.27;;;14.70;99.90;;;;;;4969549;28;20038;-61
2022/11/02 10:10:01;;;;;;;15.07;1.25;;;14.70;99.90;;;;;;4966759;28;20034;-61
2022/11/02 10:12:35;;;;;;;10.07;1.50;;;14.70;99.90;;;;;;4965844;28;20022;-61
2022/11/02 10:15:21;;;;;;;12.00;1.55;;;14.70;99.90;;;;;;4957135;28;20062;-62
2022/11/02 10:17:52;;;;;;;10.00;1.38;;;14.80;99.90;;;;;;4965792;28;20072;-62
2022/11/02 10:20:26;;;;;;;7.93;1.20;;;14.90;99.90;;;;;;4960880;28;20035;-61
2022/11/02 10:22:57;;;;;;;16.48;1.55;;;14.90;99.90;;;;;;4967965;28;20090;-62
2022/11/02 10:25:23;;;;;;;11.82;1.55;;;14.80;99.90;;;;;;4969678;28;20026;-60
2022/11/02 10:27:55;;;;;;;17.73;2.45;;;14.90;99.90;;;;;;4968514;28;20382;-61
2022/11/02 10:30:21;;;;;;;11.80;1.25;;;14.70;99.90;;;;;;4958629;28;20043;-61
2022/11/02 10:32:51;;;;;;;9.50;1.50;;;14.80;99.90;;;;;;4965198;28;20547;-61
2022/11/02 10:35:26;;;;;;;9.32;1.10;;;14.90;99.90;;;;;;4968521;28;20233;-61
2022/11/02 10:38:48;;;;;;;16.35;1.40;;;15.00;99.90;;;;;;4972595;28;20031;-61
2022/11/02 10:41:38;;;;;;;13.45;1.48;;;15.10;99.90;;;;;;4896396;29;20092;-61
2022/11/02 10:44:26;;;;;;;12.35;1.48;;;15.20;99.90;;;;;;4896599;29;20088;-62
2022/11/02 10:47:11;;;;;;;9.75;1.08;;;15.40;99.90;;;;;;4964936;28;20117;-60
2022/11/02 10:49:53;;;;;;;10.07;1.30;;;15.50;99.90;;;;;;4958958;28;20054;-62
2022/11/02 10:52:18;;;;;;;7.85;1.10;;;15.60;99.90;;;;;;4968816;28;20018;-61
2022/11/02 10:54:44;;;;;;;13.35;1.35;;;15.60;99.90;;;;;;4961370;28;20169;-61
2022/11/02 10:57:17;;;;;;;7.80;1.45;;;15.60;99.90;;;;;;4965937;28;20031;-61
2022/11/02 10:59:43;;;;;;;16.40;1.23;;;15.50;99.90;;;;;;4955074;28;20114;-60
2022/11/02 11:02:13;;;;;;;6.85;1.27;;;15.60;99.90;;;;;;4955207;28;20162;-60
2022/11/02 11:04:40;;;;;;;8.45;0.98;;;15.70;99.90;;;;;;4968956;28;20102;-61
2022/11/02 11:07:22;;;;;;;15.93;1.73;;;15.70;99.90;;;;;;4961143;28;20085;-62
2022/11/02 11:09:51;;;;;;;12.05;1.27;;;15.70;99.90;;;;;;4960334;28;20030;-61
2022/11/02 11:12:22;;;;;;;14.95;1.85;;;15.80;99.90;;;;;;4962867;28;20030;-62
2022/11/02 11:14:55;;;;;;;11.13;1.30;;;15.80;99.90;;;;;;4958875;28;20031;-61
2022/11/02 11:17:27;;;;;;;5.55;1.13;;;15.90;99.90;;;;;;4962316;28;20034;-60
2022/11/02 11:19:57;;;;;;;11.23;1.38;;;15.80;99.90;;;;;;4957295;28;20382;-62
2022/11/02 11:22:24;;;;;;;7.07;1.15;;;15.80;99.90;;;;;;4959312;28;20023;-62
2022/11/02 11:24:50;;;;;;;12.05;1.00;;;15.70;99.90;;;;;;4969373;28;20035;-62
2022/11/02 11:27:18;;;;;;;14.85;1.58;;;15.80;99.90;;;;;;4967956;28;20371;-61
2022/11/02 11:29:57;;;;;;;14.82;1.33;;;16.00;99.90;;;;;;4971652;28;20036;-61
2022/11/02 11:32:28;;;;;;;9.82;1.85;;;16.30;99.90;;;;;;4961304;28;20556;-59
2022/11/02 11:35:01;;;;;;;7.50;1.23;;;16.60;99.90;;;;;;4964394;28;20133;-62
2022/11/02 11:37:27;;;;;;;16.52;1.83;;;16.70;99.90;;;;;;4959454;28;20110;-62
2022/11/02 11:40:01;;;;;;;7.75;1.17;;;16.90;99.90;;;;;;4965847;28;20101;-61
2022/11/02 11:42:29;;;;;;;;;;;16.90;99.90;;;;;;4962210;28;20038;-62
2022/11/02 11:45:01;;;;;;;12.80;1.30;;;17.10;99.90;;;;;;4961008;28;20384;-62
2022/11/02 11:47:36;;;;;;;13.90;1.67;;;17.20;99.90;;;;;;4961284;28;20041;-61
2022/11/02 11:50:06;;;;;;;11.68;1.55;;;17.20;99.90;;;;;;4968975;28;20066;-61
2022/11/02 11:52:32;;;;;;;8.85;1.48;;;17.30;99.90;;;;;;4960197;28;20022;-62
2022/11/02 11:55:23;;;;;;;17.52;1.67;;;17.20;99.90;;;;;;4971365;28;20442;-62
2022/11/02 11:58:19;;;;;;;9.98;1.20;;;17.30;99.90;;;;;;4968426;28;20042;-62
2022/11/02 12:01:00;;;;;;;7.38;1.10;;;17.20;99.90;;;;;;4965091;28;20027;-62
2022/11/02 12:03:27;;;;;;;15.25;1.15;;;17.20;99.90;;;;;;4968344;28;20023;-63
2022/11/02 12:06:07;;;;;;;10.88;1.63;;;17.40;99.90;;;;;;4962625;28;20027;-62
2022/11/02 12:08:56;;;;;;;16.10;1.60;;;17.50;99.90;;;;;;4965382;28;21003;-61
2022/11/02 12:11:49;;;;;;;14.75;1.60;;;17.10;99.90;;;;;;4964133;28;20026;-63
2022/11/02 12:14:29;;;;;;;4.95;0.80;;;17.30;99.90;;;;;;4948214;28;20053;-62
2022/11/02 12:17:30;;;;;;;8.35;1.08;;;17.20;99.90;;;;;;4962059;28;20030;-60
2022/11/02 12:20:17;;;;;;;8.85;0.98;;;17.50;99.90;;;;;;4960526;28;20027;-59
2022/11/02 12:22:54;;;;;;;9.93;1.38;;;17.60;99.90;;;;;;4964393;28;20031;-62
2022/11/02 12:25:44;;;;;;;13.38;2.42;;;17.70;99.90;;;;;;4961720;28;20042;-60
2022/11/02 12:28:26;;;;;;;9.90;1.63;;;17.60;99.90;;;;;;4957303;28;20031;-62
2022/11/02 12:31:04;;;;;;;16.55;1.85;;;17.70;99.90;;;;;;4964288;28;20843;-61
2022/11/02 12:33:39;;;;;;;11.85;1.63;;;17.30;99.90;;;;;;4971867;28;20497;-61
2022/11/02 12:36:32;;;;;;;14.68;1.23;;;17.30;99.90;;;;;;4966433;28;20031;-60
2022/11/02 12:39:33;;;;;;;7.20;0.98;;;17.20;99.90;;;;;;4959731;28;20031;-62
2022/11/02 12:42:17;;;;;;;12.05;1.30;;;17.40;99.90;;;;;;4950648;28;20054;-63
2022/11/02 12:45:00;;;;;;;15.27;1.70;;;17.30;99.90;;;;;;4963959;28;20030;-62
2022/11/02 12:47:38;;;;;;;10.25;1.17;;;17.30;99.90;;;;;;4962426;28;20026;-63
2022/11/02 12:50:16;;;;;;;16.33;1.33;;;17.40;99.90;;;;;;4965999;28;20039;-61
2022/11/02 12:53:05;;;;;;;14.18;1.77;;;17.00;99.90;;;;;;4963418;28;20381;-60
2022/11/02 12:55:35;;;;;;;15.50;1.98;;;16.70;99.90;;;;;;4961789;28;20106;-61
2022/11/02 12:58:05;;;;;;;12.65;1.23;;;16.70;99.90;;;;;;4964937;28;20034;-62
2022/11/02 13:00:35;;;;;;;12.95;1.33;;;16.90;99.90;;;;;;4962662;28;20031;-63
2022/11/02 13:03:15;;;;;;;14.80;1.50;;;16.90;99.90;;;;;;4967162;28;20674;-64
2022/11/02 13:05:49;;;;;;;12.23;1.10;;;17.00;99.90;;;;;;4966201;28;20031;-62
2022/11/02 13:08:20;;;;;;;13.63;2.00;;;17.00;99.90;;;;;;4962472;28;20405;-63